Accueil
METAR-TAF:

METAR-TAF

Aéroports :

Base aérienne de Coxyde

Coxyde, Belgique

latitude: 51-05N, longitude: 002-39E, altitude: 4 m

Observation

Le bulletin a été fait il y a 15 minutes, à 18:55 UTC
Vent 7 kt de est/sud-est
Température 2°C
Humidité 87%
Pression 1012 hPa
Visibilité: 5000 m

METAR: EBFN 201855Z AUTO 11007KT 5000 NCD 02/00 Q1012 WHT

Heure: 20:10 (19:10 UTC)

Prévision

Le bulletin a été fait il y a 3 heures et 29 minutes, à 15:41 UTC
Prévision valable du 20 à 19 UTC au 21 à 07 UTC
Vent 12 kt de est/sud-est
Visibilité 10 km ou plus
Nuages fragmentés à une hauteur de 22000 ft
Temporairement
du 21 à 01 UTC au 21 à 07 UTC
Visibilité: 5000 m
brume
Temporairement
du 21 à 03 UTC au 21 à 07 UTC
Visibilité: 3000 m
brume

TAF: EBFN 201541Z 2019/2107 11012KT 9999 BKN220 TEMPO 2101/2107 5000 BR TEMPO 2103/2107 3000 BR

Observations et prévisions météorologiques de plus de 4000 aéroports (messages METAR et TAF).

Les stations disponibles sont représentées par des disques jaunes et rouges sur la carte.

Passer la souris dessus pour voir le nom de la station.

Cliquer dessus pour voir les observations et prévisions météorologiques.

Pour changer de carte: cliquez sur les boutons verts avec une croix noire pour zoomer, sur le bouton vert avec un tiret pour effectuer un zoom arrière, ou sur les flèches vertes pour les cartes adjacentes.


METAR-TAF: